createdAt,value
2018-05-13T00:00:45.272Z,21.33
2018-05-13T00:03:13.534Z,21.36
2018-05-13T00:05:41.833Z,21.25
2018-05-13T00:08:10.110Z,21.33
2018-05-13T00:10:38.423Z,21.25
2018-05-13T00:13:06.719Z,21.04
2018-05-13T00:15:35.017Z,21.17
2018-05-13T00:18:03.339Z,21.34
2018-05-13T00:20:32.170Z,21.40
2018-05-13T00:23:00.458Z,21.35
2018-05-13T00:25:28.809Z,21.19
2018-05-13T00:27:57.110Z,20.98
2018-05-13T00:30:25.388Z,20.84
2018-05-13T00:32:53.674Z,20.66
2018-05-13T00:35:21.926Z,20.90
2018-05-13T00:37:51.003Z,20.95
2018-05-13T00:40:19.278Z,20.96
2018-05-13T00:42:47.565Z,20.91
2018-05-13T00:45:15.906Z,20.86
2018-05-13T00:47:44.154Z,20.70
2018-05-13T00:50:12.422Z,20.58
2018-05-13T00:52:40.752Z,20.46
2018-05-13T00:55:09.013Z,20.27
2018-05-13T00:57:37.324Z,20.17
2018-05-13T01:00:05.619Z,20.08
2018-05-13T01:02:33.915Z,20.10
2018-05-13T01:05:02.239Z,20.29
2018-05-13T01:07:30.526Z,20.38
2018-05-13T01:09:58.790Z,20.29
2018-05-13T01:12:27.111Z,20.13
2018-05-13T01:14:55.399Z,20.18
2018-05-13T01:17:23.673Z,20.31
2018-05-13T01:19:51.971Z,20.36
2018-05-13T01:22:20.358Z,20.23
2018-05-13T01:24:48.682Z,20.23
2018-05-13T01:27:16.943Z,20.24
2018-05-13T01:29:45.293Z,20.33
2018-05-13T01:32:13.605Z,20.52
2018-05-13T01:34:41.898Z,20.45
2018-05-13T01:37:10.173Z,20.45
2018-05-13T01:39:38.462Z,20.36
2018-05-13T01:42:07.238Z,20.27
2018-05-13T01:44:35.530Z,20.23
2018-05-13T01:47:04.214Z,20.17
2018-05-13T01:49:32.950Z,20.22
2018-05-13T01:52:01.227Z,20.17
2018-05-13T01:54:29.529Z,20.11
2018-05-13T01:56:57.787Z,20.08
2018-05-13T01:59:26.589Z,20.11
2018-05-13T02:01:54.898Z,20.05
2018-05-13T02:04:23.208Z,20.06
2018-05-13T02:06:51.496Z,20.14
2018-05-13T02:09:19.774Z,20.20
2018-05-13T02:11:48.089Z,20.17
2018-05-13T02:14:16.371Z,20.07
2018-05-13T02:16:45.191Z,19.87
2018-05-13T02:19:13.470Z,19.83
2018-05-13T02:21:41.780Z,19.82
2018-05-13T02:24:10.058Z,19.79
2018-05-13T02:26:38.416Z,19.68
2018-05-13T02:29:06.700Z,19.84
2018-05-13T02:31:35.003Z,19.71
2018-05-13T02:34:04.319Z,19.68
2018-05-13T02:36:32.678Z,19.70
2018-05-13T02:39:00.943Z,19.78
2018-05-13T02:41:29.323Z,19.70
2018-05-13T02:43:57.566Z,19.62
2018-05-13T02:46:25.878Z,19.52
2018-05-13T02:48:54.217Z,19.64
2018-05-13T02:51:22.499Z,19.58
2018-05-13T02:53:50.776Z,19.60
2018-05-13T02:56:19.084Z,19.67
2018-05-13T02:58:47.376Z,19.63
2018-05-13T03:01:15.631Z,19.64
2018-05-13T03:03:43.915Z,19.70
2018-05-13T03:06:12.277Z,19.67
2018-05-13T03:08:40.572Z,19.27
2018-05-13T03:11:08.870Z,19.24
2018-05-13T03:13:37.151Z,19.11
2018-05-13T03:16:05.430Z,19.07
2018-05-13T03:18:34.497Z,19.21
2018-05-13T03:21:02.737Z,19.29
2018-05-13T03:23:31.023Z,19.36
2018-05-13T03:25:59.324Z,19.40
2018-05-13T03:28:27.610Z,19.33
2018-05-13T03:30:56.525Z,19.54
2018-05-13T03:33:24.816Z,19.65
2018-05-13T03:35:53.068Z,19.71
2018-05-13T03:38:21.351Z,19.76
2018-05-13T03:40:49.656Z,19.81
2018-05-13T03:43:17.937Z,19.83
2018-05-13T03:45:46.210Z,19.81
2018-05-13T03:48:14.477Z,19.75
2018-05-13T03:50:42.781Z,19.75
2018-05-13T03:53:11.040Z,19.72
2018-05-13T03:55:39.374Z,19.58
2018-05-13T03:58:07.642Z,19.49
2018-05-13T04:00:36.019Z,19.30
2018-05-13T04:03:05.792Z,19.13
2018-05-13T04:05:34.093Z,19.17
2018-05-13T04:11:28.007Z,19.09
2018-05-13T04:14:08.055Z,19.07
2018-05-13T04:16:36.486Z,18.98
2018-05-13T04:19:05.557Z,19.09
2018-05-13T04:21:33.843Z,19.26
2018-05-13T04:24:02.129Z,19.37
2018-05-13T04:26:30.413Z,19.43
2018-05-13T04:28:58.665Z,19.35
2018-05-13T04:31:26.987Z,19.13
2018-05-13T04:33:55.276Z,19.10
2018-05-13T04:36:23.574Z,19.18
2018-05-13T04:38:51.862Z,19.40
2018-05-13T04:41:20.194Z,19.35
2018-05-13T04:43:48.491Z,19.40
2018-05-13T04:46:16.759Z,19.47
2018-05-13T04:48:45.055Z,19.50
2018-05-13T04:51:13.323Z,19.54
2018-05-13T04:53:41.612Z,19.57
2018-05-13T04:56:09.886Z,19.61
2018-05-13T04:58:38.185Z,19.51
2018-05-13T05:01:07.370Z,19.32
2018-05-13T05:03:35.673Z,19.27
2018-05-13T05:06:04.933Z,19.16
2018-05-13T05:08:33.222Z,19.17
2018-05-13T05:11:01.541Z,19.20
2018-05-13T05:13:33.560Z,19.12
2018-05-13T05:16:01.823Z,19.03
2018-05-13T05:18:30.109Z,18.81
2018-05-13T05:20:58.372Z,18.70
2018-05-13T05:23:26.681Z,18.64
2018-05-13T05:25:54.942Z,18.62
2018-05-13T05:28:23.243Z,18.79
2018-05-13T05:30:51.515Z,18.76
2018-05-13T05:33:19.804Z,18.76
2018-05-13T05:35:48.115Z,18.85
2018-05-13T05:38:16.585Z,18.93
2018-05-13T05:40:44.853Z,18.99
2018-05-13T05:43:13.123Z,18.87
2018-05-13T05:45:41.483Z,18.80
2018-05-13T05:48:09.753Z,18.91
2018-05-13T05:50:38.042Z,18.99
2018-05-13T05:53:06.307Z,18.93
2018-05-13T05:55:34.597Z,18.87
2018-05-13T05:58:03.001Z,18.87
2018-05-13T06:00:31.290Z,18.85
2018-05-13T06:02:59.567Z,18.79
2018-05-13T06:05:27.924Z,18.70
2018-05-13T06:07:56.198Z,18.91
2018-05-13T06:10:24.485Z,18.93
2018-05-13T06:12:52.779Z,18.93
2018-05-13T06:15:21.054Z,18.82
2018-05-13T06:17:49.344Z,18.80
2018-05-13T06:20:17.690Z,18.81
2018-05-13T06:22:46.250Z,18.85
2018-05-13T06:25:14.640Z,18.82
2018-05-13T06:27:42.864Z,18.79
2018-05-13T06:30:11.144Z,18.67
2018-05-13T06:32:39.458Z,18.49
2018-05-13T06:35:08.651Z,18.46
2018-05-13T06:37:36.970Z,18.42
2018-05-13T06:40:05.238Z,18.42
2018-05-13T06:42:33.610Z,18.35
2018-05-13T06:45:01.814Z,18.27
2018-05-13T06:47:30.115Z,18.32
2018-05-13T06:49:58.409Z,18.26
2018-05-13T06:52:26.693Z,18.24
2018-05-13T06:54:54.999Z,18.29
2018-05-13T06:57:25.135Z,18.44
2018-05-13T06:59:53.346Z,18.37
2018-05-13T07:02:21.638Z,18.30
2018-05-13T07:04:49.950Z,18.15
2018-05-13T07:07:18.588Z,18.15
2018-05-13T07:09:46.860Z,18.12
2018-05-13T07:12:15.180Z,18.10
2018-05-13T07:14:43.491Z,18.09
2018-05-13T07:17:11.843Z,18.07
2018-05-13T07:19:40.102Z,18.13
2018-05-13T07:22:08.404Z,17.95
2018-05-13T07:24:36.706Z,17.94
2018-05-13T07:27:05.020Z,17.98
2018-05-13T07:29:33.303Z,18.00
2018-05-13T07:32:03.939Z,17.97
2018-05-13T07:34:32.252Z,17.70
2018-05-13T07:37:16.125Z,17.64
2018-05-13T07:39:44.392Z,17.63
2018-05-13T07:42:12.676Z,17.66
2018-05-13T07:44:41.236Z,17.65
2018-05-13T07:47:09.561Z,17.77
2018-05-13T07:49:37.894Z,17.98
2018-05-13T07:52:06.234Z,17.95
2018-05-13T07:54:34.535Z,17.76
2018-05-13T07:57:02.845Z,17.84
2018-05-13T07:59:31.130Z,17.90
2018-05-13T08:01:59.796Z,17.92
2018-05-13T08:04:28.100Z,17.83
2018-05-13T08:06:56.375Z,17.87
2018-05-13T08:09:26.506Z,17.88
2018-05-13T08:11:56.748Z,17.94
2018-05-13T08:14:25.309Z,17.91
2018-05-13T08:16:53.559Z,17.89
2018-05-13T08:19:22.041Z,17.92
2018-05-13T08:21:50.283Z,17.74
2018-05-13T08:24:19.312Z,17.50
2018-05-13T08:26:47.644Z,17.38
2018-05-13T08:29:15.909Z,17.35
2018-05-13T08:31:44.799Z,17.35
2018-05-13T08:34:13.154Z,17.38
2018-05-13T08:36:41.479Z,17.51
2018-05-13T08:39:09.745Z,17.62
2018-05-13T08:41:38.041Z,17.71
2018-05-13T08:44:07.156Z,17.76
2018-05-13T08:46:35.484Z,17.85
2018-05-13T08:49:03.750Z,17.95
2018-05-13T08:51:32.102Z,17.65
2018-05-13T08:54:00.492Z,17.54
2018-05-13T08:56:28.711Z,17.58
2018-05-13T08:58:56.995Z,17.69
2018-05-13T09:01:25.296Z,17.64
2018-05-13T09:03:53.612Z,17.50
2018-05-13T09:06:21.908Z,17.59
2018-05-13T09:08:50.193Z,17.63
2018-05-13T09:11:18.500Z,17.89
2018-05-13T09:13:46.768Z,17.93
2018-05-13T09:16:15.170Z,17.90
2018-05-13T09:18:43.442Z,17.95
2018-05-13T09:21:12.217Z,17.99
2018-05-13T09:23:40.495Z,18.11
2018-05-13T09:26:08.772Z,18.26
2018-05-13T09:28:37.095Z,18.40
2018-05-13T09:31:05.375Z,18.42
2018-05-13T09:33:33.684Z,18.29
2018-05-13T09:36:01.962Z,18.24
2018-05-13T09:38:30.300Z,18.29
2018-05-13T09:40:58.952Z,18.44
2018-05-13T09:43:27.296Z,18.51
2018-05-13T09:45:55.656Z,18.34
2018-05-13T09:48:23.928Z,18.15
2018-05-13T09:50:52.242Z,18.23
2018-05-13T09:53:20.562Z,18.46
2018-05-13T09:55:49.335Z,18.49
2018-05-13T09:58:17.647Z,18.64
2018-05-13T10:00:46.004Z,18.63
2018-05-13T10:03:14.991Z,18.87
2018-05-13T10:05:43.273Z,18.90
2018-05-13T10:08:11.565Z,18.89
2018-05-13T10:10:39.952Z,18.98
2018-05-13T10:13:08.228Z,19.00
2018-05-13T10:15:36.550Z,18.92
2018-05-13T10:18:05.332Z,18.93
2018-05-13T10:20:33.636Z,18.90
2018-05-13T10:23:02.089Z,18.92
2018-05-13T10:25:30.355Z,18.87
2018-05-13T10:27:58.626Z,18.89
2018-05-13T10:30:26.983Z,18.66
2018-05-13T10:32:55.228Z,18.52
2018-05-13T10:35:23.584Z,18.57
2018-05-13T10:37:51.843Z,18.62
2018-05-13T10:40:20.172Z,18.66
2018-05-13T10:42:48.801Z,18.60
2018-05-13T10:45:17.067Z,18.56
2018-05-13T10:47:45.390Z,18.64
2018-05-13T10:50:13.658Z,18.72
2018-05-13T10:52:42.030Z,18.78
2018-05-13T10:55:10.301Z,18.70
2018-05-13T10:57:38.662Z,18.65
2018-05-13T11:00:06.871Z,18.70
2018-05-13T11:02:35.176Z,18.45
2018-05-13T11:05:03.479Z,18.57
2018-05-13T11:07:32.562Z,18.69
2018-05-13T11:10:01.303Z,18.50
2018-05-13T11:12:29.623Z,18.40
2018-05-13T11:14:59.003Z,18.24
2018-05-13T11:17:27.410Z,18.21
2018-05-13T11:19:55.685Z,18.18
2018-05-13T11:22:24.500Z,17.99
2018-05-13T11:24:52.791Z,17.78
2018-05-13T11:27:21.105Z,17.81
2018-05-13T11:29:50.016Z,17.64
2018-05-13T11:32:18.321Z,17.68
2018-05-13T11:34:46.655Z,17.81
2018-05-13T11:37:15.632Z,17.77
2018-05-13T11:39:44.932Z,17.79
2018-05-13T11:42:13.206Z,17.74
2018-05-13T11:44:41.508Z,17.72
2018-05-13T11:47:09.789Z,17.69
2018-05-13T11:49:38.078Z,17.70
2018-05-13T11:52:06.363Z,17.68
2018-05-13T11:54:34.695Z,17.48
2018-05-13T11:57:02.934Z,17.51
2018-05-13T11:59:31.698Z,17.56
2018-05-13T12:02:00.003Z,17.24
2018-05-13T12:04:28.279Z,17.16
2018-05-13T12:06:56.554Z,17.13
2018-05-13T12:09:24.972Z,17.20
2018-05-13T12:11:53.250Z,16.90
2018-05-13T12:14:21.586Z,17.22
2018-05-13T12:16:49.883Z,17.30
2018-05-13T12:19:18.145Z,17.22
2018-05-13T12:21:46.442Z,17.23
2018-05-13T12:24:14.719Z,17.14
2018-05-13T12:26:43.023Z,17.16
2018-05-13T12:29:11.322Z,17.05
2018-05-13T12:31:40.084Z,17.13
2018-05-13T12:34:08.357Z,17.18
2018-05-13T12:36:36.786Z,17.12
2018-05-13T12:39:05.806Z,17.03
2018-05-13T12:41:34.149Z,17.00
2018-05-13T12:44:02.465Z,17.16
2018-05-13T12:46:30.805Z,17.25
2018-05-13T12:48:59.169Z,17.13
2018-05-13T12:51:27.478Z,17.01
2018-05-13T12:53:55.818Z,16.98
2018-05-13T12:56:24.174Z,17.06
2018-05-13T12:58:53.310Z,17.15
2018-05-13T13:01:22.640Z,17.26
2018-05-13T13:03:50.966Z,17.12
2018-05-13T13:06:19.225Z,17.16
2018-05-13T13:08:47.511Z,17.16
2018-05-13T13:11:15.875Z,16.99
2018-05-13T13:13:44.174Z,17.01
2018-05-13T13:16:12.458Z,17.09
2018-05-13T13:18:40.761Z,16.93
2018-05-13T13:21:09.064Z,16.93
2018-05-13T13:23:37.342Z,16.99
2018-05-13T13:26:05.661Z,17.05
2018-05-13T13:28:34.775Z,17.06
2018-05-13T13:31:03.048Z,17.15
2018-05-13T13:33:32.183Z,17.23
2018-05-13T13:36:00.490Z,17.17
2018-05-13T13:38:29.682Z,17.11
2018-05-13T13:40:57.955Z,17.21
2018-05-13T13:43:26.279Z,17.22
2018-05-13T13:45:54.614Z,17.15
2018-05-13T13:48:22.936Z,17.25
2018-05-13T13:50:51.213Z,17.42
2018-05-13T13:53:19.634Z,17.47
2018-05-13T13:55:48.045Z,17.34
2018-05-13T13:58:17.352Z,17.26
2018-05-13T14:00:46.932Z,17.29
2018-05-13T14:03:15.227Z,17.38
2018-05-13T14:05:43.542Z,17.46
2018-05-13T14:08:11.824Z,17.48
2018-05-13T14:10:40.452Z,17.49
2018-05-13T14:13:08.772Z,17.49
2018-05-13T14:15:37.158Z,17.46
2018-05-13T14:18:05.706Z,17.40
2018-05-13T14:20:33.992Z,17.51
2018-05-13T14:23:02.275Z,17.60
2018-05-13T14:25:30.576Z,17.59
2018-05-13T14:27:58.845Z,17.55
2018-05-13T14:30:27.146Z,17.50
2018-05-13T14:32:55.842Z,17.53
2018-05-13T14:35:24.104Z,17.62
2018-05-13T14:37:52.447Z,17.54
2018-05-13T14:40:20.743Z,17.57
2018-05-13T14:42:49.043Z,17.56
2018-05-13T14:45:17.470Z,17.49
2018-05-13T14:47:45.743Z,17.56
2018-05-13T14:50:13.980Z,17.53
2018-05-13T14:52:42.295Z,17.54
2018-05-13T14:55:10.635Z,17.53
2018-05-13T14:57:38.916Z,17.50
2018-05-13T15:00:07.202Z,17.45
2018-05-13T15:02:35.551Z,17.52
2018-05-13T15:05:04.719Z,17.61
2018-05-13T15:07:33.047Z,17.43
2018-05-13T15:10:01.323Z,17.38
2018-05-13T15:12:29.670Z,17.33
2018-05-13T15:14:58.934Z,17.39
2018-05-13T15:17:27.248Z,17.46
2018-05-13T15:19:55.511Z,17.36
2018-05-13T15:22:29.368Z,17.46
2018-05-13T15:24:57.566Z,17.43
2018-05-13T15:27:25.879Z,17.49
2018-05-13T15:29:54.143Z,17.52
2018-05-13T15:32:22.482Z,17.49
2018-05-13T15:34:50.774Z,17.42
2018-05-13T15:37:19.155Z,17.48
2018-05-13T15:39:47.351Z,17.43
2018-05-13T15:42:16.459Z,17.38
2018-05-13T15:44:44.755Z,17.20
2018-05-13T15:47:13.043Z,17.24
2018-05-13T15:49:41.327Z,17.36
2018-05-13T15:52:09.600Z,17.45
2018-05-13T15:54:37.926Z,17.33
2018-05-13T15:57:06.244Z,17.14
2018-05-13T15:59:34.534Z,17.24
2018-05-13T16:02:02.799Z,17.46
2018-05-13T16:04:31.110Z,17.58
2018-05-13T16:06:59.382Z,17.51
2018-05-13T16:09:28.030Z,17.46
2018-05-13T16:11:56.350Z,17.35
2018-05-13T16:14:25.194Z,17.43
2018-05-13T16:16:53.483Z,17.58
2018-05-13T16:19:21.746Z,17.54
2018-05-13T16:21:50.055Z,17.52
2018-05-13T16:24:18.312Z,17.48
2018-05-13T16:26:46.609Z,17.50
2018-05-13T16:29:14.874Z,17.45
2018-05-13T16:31:43.170Z,17.54
2018-05-13T16:34:11.434Z,17.46
2018-05-13T16:36:39.739Z,17.49
2018-05-13T16:39:08.002Z,17.45
2018-05-13T16:41:36.301Z,17.42
2018-05-13T16:44:04.603Z,17.45
2018-05-13T16:46:32.915Z,17.44
2018-05-13T16:49:01.244Z,17.46
2018-05-13T16:51:29.536Z,17.44
2018-05-13T16:53:57.793Z,17.45
2018-05-13T16:56:26.126Z,17.45
2018-05-13T16:58:54.406Z,17.52
2018-05-13T17:01:22.706Z,17.67
2018-05-13T17:03:50.984Z,17.73
2018-05-13T17:06:19.504Z,17.78
2018-05-13T17:08:47.798Z,17.65
2018-05-13T17:11:16.116Z,17.83
2018-05-13T17:13:44.389Z,17.76
2018-05-13T17:16:12.731Z,17.77
2018-05-13T17:18:41.003Z,17.83
2018-05-13T17:21:09.294Z,17.66
2018-05-13T17:23:37.585Z,17.75
2018-05-13T17:26:05.875Z,17.66
2018-05-13T17:28:34.148Z,17.89
2018-05-13T17:31:02.446Z,17.79
2018-05-13T17:33:31.519Z,17.77
2018-05-13T17:35:59.785Z,17.76
2018-05-13T17:38:28.086Z,17.84
2018-05-13T17:40:57.466Z,17.73
2018-05-13T17:43:26.014Z,17.78
2018-05-13T17:45:55.409Z,17.72
2018-05-13T17:48:23.753Z,17.78
2018-05-13T17:50:52.077Z,17.78
2018-05-13T17:53:21.374Z,17.79
2018-05-13T17:55:49.687Z,17.76
2018-05-13T17:58:17.961Z,17.75
2018-05-13T18:00:46.277Z,17.82
2018-05-13T18:03:14.680Z,17.92
2018-05-13T18:05:42.815Z,17.87
2018-05-13T18:08:11.158Z,17.79
2018-05-13T18:10:39.438Z,17.76
2018-05-13T18:13:07.740Z,17.73
2018-05-13T18:15:36.023Z,17.71
2018-05-13T18:18:04.324Z,17.61
2018-05-13T18:20:32.586Z,17.53
2018-05-13T18:23:00.914Z,17.55
2018-05-13T18:25:29.489Z,17.53
2018-05-13T18:27:57.741Z,17.50
2018-05-13T18:30:26.069Z,17.43
2018-05-13T18:32:54.547Z,17.52
2018-05-13T18:35:22.889Z,17.51
2018-05-13T18:37:51.234Z,17.47
2018-05-13T18:40:20.438Z,17.40
2018-05-13T18:42:48.765Z,17.53
2018-05-13T18:45:17.113Z,17.46
2018-05-13T18:47:45.404Z,17.41
2018-05-13T18:50:13.741Z,17.37
2018-05-13T18:52:42.050Z,17.33
2018-05-13T18:55:10.374Z,17.37
2018-05-13T18:57:38.686Z,17.42
2018-05-13T19:00:06.967Z,17.23
2018-05-13T19:02:35.310Z,17.21
2018-05-13T19:05:03.611Z,17.29
2018-05-13T19:07:31.935Z,17.24
2018-05-13T19:10:00.215Z,17.10
2018-05-13T19:12:28.523Z,17.23
2018-05-13T19:14:56.788Z,17.28
2018-05-13T19:17:25.110Z,17.19
2018-05-13T19:19:53.432Z,17.12
2018-05-13T19:22:21.727Z,16.88
2018-05-13T19:24:50.059Z,16.87
2018-05-13T19:27:18.334Z,17.06
2018-05-13T19:29:46.595Z,17.01
2018-05-13T19:32:14.917Z,16.93
2018-05-13T19:34:43.183Z,17.03
2018-05-13T19:37:11.491Z,17.03
2018-05-13T19:39:39.797Z,17.00
2018-05-13T19:42:09.375Z,16.89
2018-05-13T19:44:37.687Z,17.00
2018-05-13T19:47:05.968Z,16.95
2018-05-13T19:49:34.316Z,16.85
2018-05-13T19:52:02.582Z,16.78
2018-05-13T19:54:30.941Z,16.70
2018-05-13T19:56:59.246Z,16.62
2018-05-13T19:59:27.556Z,16.58
2018-05-13T20:01:55.839Z,16.61
2018-05-13T20:04:24.463Z,16.76
2018-05-13T20:06:52.731Z,16.75
2018-05-13T20:09:21.060Z,16.91
2018-05-13T20:11:49.336Z,17.01
2018-05-13T20:14:19.617Z,17.03
2018-05-13T20:16:47.904Z,17.03
2018-05-13T20:19:16.306Z,16.95
2018-05-13T20:21:44.551Z,16.93
2018-05-13T20:24:12.911Z,16.91
2018-05-13T20:26:41.190Z,16.93
2018-05-13T20:29:09.518Z,16.94
2018-05-13T20:31:37.832Z,16.92
2018-05-13T20:34:06.104Z,16.89
2018-05-13T20:36:34.418Z,16.82
2018-05-13T20:39:02.761Z,16.82
2018-05-13T20:41:31.028Z,16.80
2018-05-13T20:43:59.355Z,16.73
2018-05-13T20:46:27.635Z,16.70
2018-05-13T20:48:55.959Z,16.69
2018-05-13T20:51:24.241Z,16.60
2018-05-13T20:53:52.626Z,16.66
2018-05-13T20:56:20.923Z,16.70
2018-05-13T20:58:49.195Z,16.66
2018-05-13T21:01:17.528Z,16.61
2018-05-13T21:03:46.137Z,16.66
2018-05-13T21:06:14.430Z,16.71
2018-05-13T21:08:42.725Z,16.84
2018-05-13T21:11:11.112Z,16.97
2018-05-13T21:13:39.473Z,16.98
2018-05-13T21:16:07.799Z,16.68
2018-05-13T21:18:36.178Z,16.80
2018-05-13T21:21:04.570Z,16.71
2018-05-13T21:23:32.904Z,16.67
2018-05-13T21:26:01.357Z,16.78
2018-05-13T21:28:29.730Z,16.53
2018-05-13T21:30:58.008Z,16.44
2018-05-13T21:33:26.291Z,16.39
2018-05-13T21:35:54.629Z,16.39
2018-05-13T21:38:22.919Z,16.45
2018-05-13T21:40:51.258Z,16.52
2018-05-13T21:43:19.548Z,16.62
2018-05-13T21:45:47.929Z,16.75
2018-05-13T21:48:16.271Z,16.81
2018-05-13T21:50:44.615Z,16.81
2018-05-13T21:53:12.914Z,16.85
2018-05-13T21:55:41.219Z,16.81
2018-05-13T21:58:09.544Z,16.86
2018-05-13T22:00:38.166Z,16.74
2018-05-13T22:03:06.592Z,16.72
2018-05-13T22:05:34.865Z,16.70
2018-05-13T22:08:04.239Z,16.64
2018-05-13T22:10:32.516Z,16.74
2018-05-13T22:13:00.875Z,16.71
2018-05-13T22:15:29.154Z,16.76
2018-05-13T22:17:57.650Z,16.84
2018-05-13T22:20:25.962Z,16.92
2018-05-13T22:22:54.289Z,16.96
2018-05-13T22:25:22.592Z,16.95
2018-05-13T22:27:50.892Z,16.98
2018-05-13T22:30:19.170Z,16.94
2018-05-13T22:32:47.490Z,16.91
2018-05-13T22:35:15.771Z,16.77
2018-05-13T22:37:44.086Z,16.70
2018-05-13T22:40:12.644Z,16.67
2018-05-13T22:42:40.979Z,16.82
2018-05-13T22:45:09.281Z,16.86
2018-05-13T22:47:37.587Z,16.85
2018-05-13T22:50:06.164Z,16.89
2018-05-13T22:52:34.444Z,16.86
2018-05-13T22:55:02.804Z,16.83
2018-05-13T22:57:31.057Z,16.69
2018-05-13T22:59:59.366Z,16.48
2018-05-13T23:02:27.813Z,16.45
2018-05-13T23:04:56.153Z,16.48
2018-05-13T23:07:24.399Z,16.55
2018-05-13T23:09:52.761Z,16.63
2018-05-13T23:12:21.024Z,16.61
2018-05-13T23:14:49.333Z,16.44
2018-05-13T23:17:17.634Z,16.41
2018-05-13T23:19:45.926Z,16.47
2018-05-13T23:22:26.557Z,16.56
2018-05-13T23:24:54.891Z,16.60
2018-05-13T23:27:23.241Z,16.53
2018-05-13T23:29:51.511Z,16.49
2018-05-13T23:32:19.838Z,16.50
2018-05-13T23:34:48.460Z,16.56
2018-05-13T23:37:16.731Z,16.57
2018-05-13T23:39:45.059Z,16.49
2018-05-13T23:42:13.351Z,16.47
2018-05-13T23:44:41.662Z,16.52
2018-05-13T23:47:09.944Z,16.54
2018-05-13T23:49:38.239Z,16.57
2018-05-13T23:52:06.534Z,16.64
2018-05-13T23:54:34.930Z,16.60
2018-05-13T23:57:03.247Z,16.58
2018-05-13T23:59:32.743Z,16.58
